createdAt,value
2022-09-07T00:01:46.061Z,95417.38
2022-09-07T00:04:12.510Z,95422.55
2022-09-07T00:06:38.834Z,95426.76
2022-09-07T00:09:05.223Z,95426.90
2022-09-07T00:11:31.666Z,95422.66
2022-09-07T00:13:58.067Z,95426.55
2022-09-07T00:16:24.511Z,95423.95
2022-09-07T00:18:50.840Z,95426.22
2022-09-07T00:21:17.235Z,95424.92
2022-09-07T00:23:43.603Z,95424.09
2022-09-07T00:26:09.994Z,95421.84
2022-09-07T00:28:36.373Z,95419.03
2022-09-07T00:31:02.800Z,95424.20
2022-09-07T00:33:29.126Z,95413.50
2022-09-07T00:35:55.519Z,95410.45
2022-09-07T00:38:21.912Z,95416.59
2022-09-07T00:40:48.309Z,95417.88
2022-09-07T00:43:16.531Z,95415.77
2022-09-07T00:45:42.913Z,95421.27
2022-09-07T00:48:09.293Z,95418.81
2022-09-07T00:50:35.753Z,95428.23
2022-09-07T00:53:02.125Z,95421.77
2022-09-07T00:55:28.621Z,95421.77
2022-09-07T00:57:54.995Z,95420.94
2022-09-07T01:00:21.389Z,95420.58
2022-09-07T01:02:47.866Z,95421.05
2022-09-07T01:05:14.149Z,95417.63
2022-09-07T01:07:40.533Z,95411.99
2022-09-07T01:10:06.919Z,95413.75
2022-09-07T01:12:33.300Z,95409.55
2022-09-07T01:14:59.683Z,95408.58
2022-09-07T01:17:26.064Z,95407.42
2022-09-07T01:19:52.557Z,95408.72
2022-09-07T01:22:18.935Z,95406.13
2022-09-07T01:24:45.322Z,95405.77
2022-09-07T01:27:11.708Z,95407.42
2022-09-07T01:29:38.096Z,95402.25
2022-09-07T01:32:04.481Z,95405.30
2022-09-07T01:34:30.859Z,95402.36
2022-09-07T01:36:57.269Z,95402.72
2022-09-07T01:39:23.679Z,95404.48
2022-09-07T01:41:50.062Z,95398.48
2022-09-07T01:44:16.578Z,95399.31
2022-09-07T01:46:43.029Z,95405.77
2022-09-07T01:49:09.343Z,95389.25
2022-09-07T01:51:35.720Z,95404.02
2022-09-07T01:54:02.102Z,95397.44
2022-09-07T01:56:28.488Z,95399.56
2022-09-07T01:58:54.966Z,95402.50
2022-09-07T02:01:21.368Z,95399.09
2022-09-07T02:03:47.739Z,95400.85
2022-09-07T02:06:14.130Z,95396.50
2022-09-07T02:08:40.520Z,95396.14
2022-09-07T02:11:06.894Z,95392.98
2022-09-07T02:13:33.279Z,95390.86
2022-09-07T02:15:59.701Z,95386.62
2022-09-07T02:18:26.037Z,95368.81
2022-09-07T02:20:52.421Z,95388.39
2022-09-07T02:23:18.795Z,95384.04
2022-09-07T02:25:45.186Z,95382.28
2022-09-07T02:28:11.561Z,95380.63
2022-09-07T02:30:38.112Z,95382.89
2022-09-07T02:33:04.337Z,95376.78
2022-09-07T02:35:30.726Z,95375.59
2022-09-07T02:37:57.104Z,95375.37
2022-09-07T02:40:23.488Z,95383.36
2022-09-07T02:42:49.865Z,95374.77
2022-09-07T02:45:16.313Z,95379.12
2022-09-07T02:47:42.711Z,95379.73
2022-09-07T02:50:09.145Z,95382.78
2022-09-07T02:52:35.522Z,95385.38
2022-09-07T02:55:02.013Z,95391.02
2022-09-07T02:57:28.396Z,95393.38
2022-09-07T02:59:54.778Z,95391.37
2022-09-07T03:02:21.235Z,95387.49
2022-09-07T03:04:47.586Z,95388.45
2022-09-07T03:07:13.945Z,95395.03
2022-09-07T03:09:40.327Z,95385.05
2022-09-07T03:12:06.737Z,95398.09
2022-09-07T03:14:33.148Z,95396.58
2022-09-07T03:16:59.537Z,95394.92
2022-09-07T03:19:26.039Z,95394.09
2022-09-07T03:21:52.417Z,95394.09
2022-09-07T03:24:18.806Z,95394.56
2022-09-07T03:26:45.192Z,95386.59
2022-09-07T03:29:11.570Z,95387.38
2022-09-07T03:31:37.950Z,95388.81
2022-09-07T03:34:04.439Z,95387.63
2022-09-07T03:36:30.820Z,95393.27
2022-09-07T03:38:57.202Z,95396.82
2022-09-07T03:41:23.585Z,95398.44
2022-09-07T03:43:50.047Z,95406.70
2022-09-07T03:46:16.455Z,95406.45
2022-09-07T03:48:42.839Z,95403.86
2022-09-07T03:51:09.215Z,95403.53
2022-09-07T03:53:35.624Z,95386.97
2022-09-07T03:56:04.298Z,95405.98
2022-09-07T03:58:30.740Z,95400.95
2022-09-07T04:00:57.093Z,95405.76
2022-09-07T04:03:23.451Z,95411.87
2022-09-07T04:05:49.829Z,95410.71
2022-09-07T04:08:16.216Z,95403.09
2022-09-07T04:10:42.597Z,95403.09
2022-09-07T04:13:08.983Z,95412.00
2022-09-07T04:15:35.357Z,95411.64
2022-09-07T04:18:01.751Z,95418.47
2022-09-07T04:20:28.169Z,95419.76
2022-09-07T04:22:54.578Z,95423.17
2022-09-07T04:25:20.943Z,95426.22
2022-09-07T04:27:47.356Z,95435.27
2022-09-07T04:30:13.835Z,95428.91
2022-09-07T04:32:40.242Z,95425.39
2022-09-07T04:35:06.620Z,95432.22
2022-09-07T04:37:33.012Z,95434.34
2022-09-07T04:39:59.472Z,95432.80
2022-09-07T04:42:25.800Z,95427.87
2022-09-07T04:44:52.173Z,95430.34
2022-09-07T04:47:18.591Z,95424.94
2022-09-07T04:49:45.097Z,95427.77
2022-09-07T04:52:11.476Z,95431.03
2022-09-07T04:54:37.862Z,95429.30
2022-09-07T04:57:04.247Z,95426.00
2022-09-07T04:59:30.632Z,95431.28
2022-09-07T05:01:58.264Z,95433.04
2022-09-07T05:04:23.396Z,95431.10
2022-09-07T05:06:49.803Z,95435.98
2022-09-07T05:09:16.182Z,95427.63
2022-09-07T05:11:42.628Z,95435.50
2022-09-07T05:14:09.024Z,95432.22
2022-09-07T05:16:35.482Z,95434.89
2022-09-07T05:19:01.806Z,95439.12
2022-09-07T05:21:28.190Z,95444.88
2022-09-07T05:23:54.549Z,95444.98
2022-09-07T05:26:20.948Z,95443.34
2022-09-07T05:28:47.338Z,95444.05
2022-09-07T05:36:06.478Z,95434.05
2022-09-07T05:38:32.889Z,95431.56
2022-09-07T05:40:59.277Z,95438.28
2022-09-07T05:43:25.660Z,95439.46
2022-09-07T05:45:52.120Z,95436.41
2022-09-07T05:48:18.424Z,95424.77
2022-09-07T05:50:44.819Z,95426.86
2022-09-07T05:53:11.216Z,95428.70
2022-09-07T05:55:37.596Z,95432.50
2022-09-07T05:58:03.977Z,95429.09
2022-09-07T06:00:30.359Z,95429.20
2022-09-07T06:02:56.823Z,95428.63
2022-09-07T06:05:23.126Z,95427.73
2022-09-07T06:07:49.563Z,95429.20
2022-09-07T06:12:44.452Z,95425.89
2022-09-07T06:15:08.942Z,95430.24
2022-09-07T06:17:35.341Z,95436.56
2022-09-07T06:20:01.733Z,95440.38
2022-09-07T06:22:30.930Z,95442.09
2022-09-07T06:24:54.513Z,95439.30
2022-09-07T06:27:20.910Z,95443.17
2022-09-07T06:29:47.436Z,95434.70
2022-09-07T06:34:40.228Z,95432.36
2022-09-07T06:37:06.610Z,95436.13
2022-09-07T06:39:33.052Z,95434.70
2022-09-07T06:41:59.414Z,95437.67
2022-09-07T06:44:25.795Z,95442.45
2022-09-07T06:47:07.485Z,95439.30
2022-09-07T06:49:18.572Z,95439.80
2022-09-07T06:51:44.963Z,95408.56
2022-09-07T06:56:37.768Z,95434.70
2022-09-07T06:59:04.196Z,95433.55
2022-09-07T07:01:30.776Z,95437.42
2022-09-07T07:03:57.069Z,95441.77
2022-09-07T07:06:23.452Z,95447.70
2022-09-07T07:08:49.835Z,95445.80
2022-09-07T07:11:16.216Z,95448.28
2022-09-07T07:13:42.602Z,95454.86
2022-09-07T07:16:09.011Z,95444.05
2022-09-07T07:18:35.658Z,95450.63
2022-09-07T07:21:01.776Z,95447.81
2022-09-07T07:23:28.419Z,95450.55
2022-09-07T07:25:54.797Z,95448.75
2022-09-07T07:30:47.617Z,95446.88
2022-09-07T07:33:14.036Z,95444.26
2022-09-07T07:35:40.340Z,95437.36
2022-09-07T07:40:34.176Z,95448.50
2022-09-07T07:42:59.390Z,95449.94
2022-09-07T07:47:52.075Z,95446.34
2022-09-07T07:50:34.276Z,95450.80
2022-09-07T07:53:41.347Z,95447.27
2022-09-07T07:57:37.522Z,95451.27
2022-09-07T08:00:03.864Z,95447.88
2022-09-07T08:02:30.234Z,95450.31
2022-09-07T08:04:56.560Z,95461.78
2022-09-07T08:07:22.945Z,95455.80
2022-09-07T08:09:49.290Z,95455.95
2022-09-07T08:12:15.655Z,95457.92
2022-09-07T08:14:42.118Z,95446.18
2022-09-07T08:17:08.377Z,95444.14
2022-09-07T08:19:34.729Z,95446.41
2022-09-07T08:22:01.081Z,95444.66
2022-09-07T08:24:27.426Z,95445.19
2022-09-07T08:26:53.796Z,95447.62
2022-09-07T08:29:20.158Z,95446.34
2022-09-07T08:31:46.598Z,95437.11
2022-09-07T08:34:12.856Z,95442.61
2022-09-07T08:36:39.228Z,95441.63
2022-09-07T08:39:05.620Z,95438.00
2022-09-07T08:41:31.932Z,95440.48
2022-09-07T08:43:58.277Z,95435.77
2022-09-07T08:46:24.699Z,95434.95
2022-09-07T08:48:50.997Z,95424.85
2022-09-07T08:51:21.138Z,95423.45
2022-09-07T08:53:43.690Z,95421.94
2022-09-07T08:56:10.038Z,95419.73
2022-09-07T08:58:51.739Z,95426.31
2022-09-07T09:03:30.022Z,95410.69
2022-09-07T09:05:55.517Z,95409.50
2022-09-07T09:08:21.794Z,95405.84
2022-09-07T09:10:48.145Z,95404.80
2022-09-07T09:13:14.484Z,95399.27
2022-09-07T09:15:40.856Z,95398.08
2022-09-07T09:18:10.017Z,95391.83
2022-09-07T09:20:33.517Z,95390.19
2022-09-07T09:22:59.855Z,95387.13
2022-09-07T09:25:26.201Z,95382.42
2022-09-07T09:27:52.544Z,95384.44
2022-09-07T09:30:18.899Z,95386.62
2022-09-07T09:32:45.265Z,95381.23
2022-09-07T09:35:11.613Z,95382.95
2022-09-07T09:37:37.967Z,95381.81
2022-09-07T09:40:05.332Z,95376.74
2022-09-07T09:42:31.869Z,95370.74
2022-09-07T09:44:58.318Z,95368.02
2022-09-07T09:47:31.096Z,95368.16
2022-09-07T09:49:49.729Z,95370.02
2022-09-07T09:52:36.241Z,95367.44
2022-09-07T09:54:42.424Z,95360.67
2022-09-07T09:57:08.775Z,95361.97
2022-09-07T10:04:27.817Z,95361.97
2022-09-07T10:06:54.166Z,95364.12
2022-09-07T10:09:20.502Z,95357.66
2022-09-07T10:14:13.188Z,95354.81
2022-09-07T10:16:39.542Z,95346.13
2022-09-07T10:19:05.893Z,95344.95
2022-09-07T10:21:32.235Z,95338.84
2022-09-07T10:23:58.615Z,95335.83
2022-09-07T10:26:24.954Z,95330.39
2022-09-07T10:29:07.125Z,95331.13
2022-09-07T10:31:17.698Z,95326.09
2022-09-07T10:33:44.541Z,95327.65
2022-09-07T10:36:10.379Z,95322.59
2022-09-07T10:38:36.727Z,95321.81
2022-09-07T10:41:03.072Z,95320.37
2022-09-07T10:43:29.422Z,95315.39
2022-09-07T10:45:55.795Z,95314.16
2022-09-07T10:48:22.121Z,95312.55
2022-09-07T10:50:48.462Z,95315.75
2022-09-07T10:53:39.765Z,95316.80
2022-09-07T10:55:41.150Z,95314.62
2022-09-07T10:58:07.547Z,95303.75
2022-09-07T11:00:33.875Z,95302.41
2022-09-07T11:05:31.070Z,95306.64
2022-09-07T11:07:52.917Z,95299.83
2022-09-07T11:10:19.318Z,95293.66
2022-09-07T11:12:48.094Z,95292.41
2022-09-07T11:15:14.431Z,95290.75
2022-09-07T11:17:40.771Z,95289.21
2022-09-07T11:20:07.105Z,95288.74
2022-09-07T11:22:33.467Z,95283.87
2022-09-07T11:27:26.168Z,95280.25
2022-09-07T11:29:52.568Z,95280.09
2022-09-07T11:32:18.917Z,95274.25
2022-09-07T11:34:45.342Z,95279.33
2022-09-07T11:37:11.612Z,95271.45
2022-09-07T11:39:38.010Z,95275.69
2022-09-07T11:42:42.582Z,95266.19
2022-09-07T11:44:30.648Z,95260.63
2022-09-07T11:46:56.997Z,95256.49
2022-09-07T11:49:23.332Z,95262.61
2022-09-07T11:51:53.644Z,95260.28
2022-09-07T11:54:16.040Z,95260.16
2022-09-07T11:56:45.775Z,95261.83
2022-09-07T11:59:09.942Z,95259.45
2022-09-07T12:01:36.284Z,95260.33
2022-09-07T12:04:02.932Z,95256.83
2022-09-07T12:06:27.790Z,95247.13
2022-09-07T12:08:54.147Z,95252.42
2022-09-07T12:11:23.412Z,95252.73
2022-09-07T12:13:46.841Z,95252.37
2022-09-07T12:16:13.286Z,95242.73
2022-09-07T12:18:39.613Z,95243.21
2022-09-07T12:21:05.961Z,95230.18
2022-09-07T12:23:32.303Z,95233.33
2022-09-07T12:25:58.662Z,95229.55
2022-09-07T12:28:25.035Z,95227.69
2022-09-07T12:30:51.394Z,95235.86
2022-09-07T12:33:17.779Z,95231.19
2022-09-07T12:35:44.155Z,95232.51
2022-09-07T12:38:10.492Z,95225.83
2022-09-07T12:40:36.878Z,95220.28
2022-09-07T12:43:09.686Z,95218.84
2022-09-07T12:45:29.567Z,95217.17
2022-09-07T12:47:55.913Z,95215.22
2022-09-07T12:50:22.259Z,95215.11
2022-09-07T12:52:48.615Z,95215.22
2022-09-07T12:55:28.067Z,95209.11
2022-09-07T12:57:42.259Z,95208.28
2022-09-07T13:00:09.925Z,95206.90
2022-09-07T13:02:35.075Z,95210.05
2022-09-07T13:05:01.313Z,95204.91
2022-09-07T13:07:27.661Z,95196.27
2022-09-07T13:09:54.017Z,95193.67
2022-09-07T13:14:46.704Z,95202.79
2022-09-07T13:17:16.496Z,95198.23
2022-09-07T13:19:40.338Z,95195.85
2022-09-07T13:22:05.775Z,95195.44
2022-09-07T13:24:47.911Z,95191.32
2022-09-07T13:26:58.466Z,95188.35
2022-09-07T13:29:24.846Z,95190.68
2022-09-07T13:31:51.688Z,95188.27
2022-09-07T13:34:17.532Z,95188.15
2022-09-07T13:36:43.872Z,95189.09
2022-09-07T13:39:10.243Z,95186.70
2022-09-07T13:41:36.594Z,95177.27
2022-09-07T13:44:02.929Z,95184.12
2022-09-07T13:46:29.344Z,95183.18
2022-09-07T13:48:55.664Z,95187.20
2022-09-07T13:51:22.011Z,95179.77
2022-09-07T13:53:48.360Z,95179.91
2022-09-07T13:56:14.707Z,95180.03
2022-09-07T13:58:41.039Z,95184.17
2022-09-07T14:01:07.461Z,95174.30
2022-09-07T14:03:33.736Z,95179.15
2022-09-07T14:06:00.101Z,95179.00
2022-09-07T14:08:26.457Z,95178.59
2022-09-07T14:10:52.815Z,95169.65
2022-09-07T14:13:19.148Z,95172.30
2022-09-07T14:15:45.496Z,95173.94
2022-09-07T14:18:11.861Z,95183.52
2022-09-07T14:20:38.205Z,95175.39
2022-09-07T14:23:04.539Z,95177.67
2022-09-07T14:26:15.890Z,95184.27
2022-09-07T14:27:57.327Z,95181.44
2022-09-07T14:30:23.691Z,95179.32
2022-09-07T14:32:50.058Z,95182.75
2022-09-07T14:35:16.398Z,95183.67
2022-09-07T14:37:42.786Z,95180.52
2022-09-07T14:40:09.177Z,95178.45
2022-09-07T14:42:35.471Z,95183.72
2022-09-07T14:45:01.819Z,95179.84
2022-09-07T14:47:29.155Z,95186.27
2022-09-07T14:49:56.006Z,95182.39
2022-09-07T14:52:20.850Z,95178.02
2022-09-07T14:54:49.356Z,95174.89
2022-09-07T14:57:15.697Z,95173.72
2022-09-07T14:59:42.045Z,95173.47
2022-09-07T15:02:08.425Z,95171.34
2022-09-07T15:04:34.817Z,95163.48
2022-09-07T15:07:01.471Z,95167.20
2022-09-07T15:09:27.452Z,95170.81
2022-09-07T15:11:53.801Z,95166.88
2022-09-07T15:14:20.145Z,95164.50
2022-09-07T15:16:46.771Z,95167.91
2022-09-07T15:19:12.861Z,95178.72
2022-09-07T15:21:39.751Z,95177.16
2022-09-07T15:24:07.146Z,95174.69
2022-09-07T15:29:13.691Z,95170.79
2022-09-07T15:31:42.519Z,95171.47
2022-09-07T15:33:51.000Z,95173.14
2022-09-07T15:36:17.333Z,95173.55
2022-09-07T15:38:59.730Z,95180.53
2022-09-07T15:41:23.812Z,95178.41
2022-09-07T15:43:37.960Z,95181.36
2022-09-07T15:46:03.753Z,95187.23
2022-09-07T15:48:29.078Z,95188.76
2022-09-07T15:50:58.875Z,95186.75
2022-09-07T15:55:48.312Z,95197.41
2022-09-07T15:58:14.702Z,95204.38
2022-09-07T16:00:41.080Z,95192.95
2022-09-07T16:03:08.287Z,95204.39
2022-09-07T16:05:33.764Z,95196.08
2022-09-07T16:10:26.494Z,95201.47
2022-09-07T16:13:01.809Z,95199.49
2022-09-07T16:15:19.154Z,95205.23
2022-09-07T16:17:47.745Z,95208.07
2022-09-07T16:20:11.901Z,95203.73
2022-09-07T16:25:04.580Z,95205.70
2022-09-07T16:27:33.053Z,95203.58
2022-09-07T16:29:57.551Z,95200.88
2022-09-07T16:34:49.955Z,95195.97
2022-09-07T16:37:17.431Z,95199.34
2022-09-07T16:39:43.818Z,95187.95
2022-09-07T16:42:10.108Z,95187.39
2022-09-07T16:44:36.445Z,95191.59
2022-09-07T16:47:02.790Z,95189.16
2022-09-07T16:49:29.129Z,95188.53
2022-09-07T16:51:55.478Z,95187.59
2022-09-07T16:54:21.814Z,95186.78
2022-09-07T16:56:48.159Z,95187.48
2022-09-07T16:59:14.500Z,95189.00
2022-09-07T17:01:40.912Z,95189.00
2022-09-07T17:04:11.012Z,95193.85
2022-09-07T17:06:35.202Z,95196.44
2022-09-07T17:08:59.854Z,95198.41
2022-09-07T17:11:26.214Z,95206.31
2022-09-07T17:13:52.565Z,95205.13
2022-09-07T17:16:18.946Z,95216.39
2022-09-07T17:21:11.609Z,95217.88
2022-09-07T17:23:47.886Z,95222.02
2022-09-07T17:26:04.295Z,95227.91
2022-09-07T17:28:32.241Z,95221.91
2022-09-07T17:30:57.058Z,95225.38
2022-09-07T17:33:23.408Z,95225.19
2022-09-07T17:35:49.723Z,95225.19
2022-09-07T17:40:42.391Z,95223.44
2022-09-07T17:45:35.681Z,95230.36
2022-09-07T17:48:01.403Z,95226.03
2022-09-07T17:50:28.946Z,95234.50
2022-09-07T17:52:54.089Z,95240.13
2022-09-07T17:55:20.432Z,95245.31
2022-09-07T17:57:46.776Z,95245.89
2022-09-07T18:00:13.206Z,95256.33
2022-09-07T18:02:39.959Z,95261.91
2022-09-07T18:05:07.331Z,95262.94
2022-09-07T18:07:32.902Z,95269.04
2022-09-07T18:09:59.010Z,95272.08
2022-09-07T18:12:25.346Z,95270.32
2022-09-07T18:14:51.712Z,95280.41
2022-09-07T18:17:18.046Z,95281.20
2022-09-07T18:19:44.388Z,95279.33
2022-09-07T18:22:10.724Z,95276.59
2022-09-07T18:24:37.252Z,95281.19
2022-09-07T18:27:03.417Z,95280.83
2022-09-07T18:29:32.951Z,95287.66
2022-09-07T18:31:56.233Z,95288.95
2022-09-07T18:34:22.423Z,95290.56
2022-09-07T18:36:48.763Z,95287.04
2022-09-07T18:39:15.106Z,95284.92
2022-09-07T18:41:41.447Z,95283.52
2022-09-07T18:45:27.092Z,95281.40
2022-09-07T18:46:34.808Z,95291.63
2022-09-07T18:49:00.465Z,95285.17
2022-09-07T18:51:27.205Z,95287.40
2022-09-07T18:53:53.140Z,95289.84
2022-09-07T18:56:19.477Z,95285.49
2022-09-07T18:58:45.823Z,95283.87
2022-09-07T19:01:12.215Z,95281.61
2022-09-07T19:03:38.518Z,95277.73
2022-09-07T19:06:04.857Z,95280.31
2022-09-07T19:08:31.194Z,95275.61
2022-09-07T19:10:57.529Z,95280.31
2022-09-07T19:13:23.875Z,95284.20
2022-09-07T19:15:51.185Z,95282.44
2022-09-07T19:18:16.561Z,95282.44
2022-09-07T19:20:42.893Z,95290.20
2022-09-07T19:23:09.231Z,95289.26
2022-09-07T19:25:35.567Z,95285.84
2022-09-07T19:28:01.911Z,95285.84
2022-09-07T19:30:30.745Z,95282.08
2022-09-07T19:33:00.730Z,95283.27
2022-09-07T19:35:23.416Z,95284.20
2022-09-07T19:37:49.761Z,95282.44
2022-09-07T19:40:19.275Z,95284.55
2022-09-07T19:42:42.434Z,95285.49
2022-09-07T19:45:08.772Z,95283.73
2022-09-07T19:47:35.149Z,95285.49
2022-09-07T19:50:01.484Z,95290.41
2022-09-07T19:52:29.908Z,95291.37
2022-09-07T19:54:54.177Z,95297.70
2022-09-07T19:57:20.528Z,95294.75
2022-09-07T19:59:48.288Z,95293.46
2022-09-07T20:02:13.201Z,95291.70
2022-09-07T20:04:39.547Z,95293.82
2022-09-07T20:07:05.889Z,95291.23
2022-09-07T20:09:32.220Z,95286.06
2022-09-07T20:11:58.568Z,95281.82
2022-09-07T20:14:24.937Z,95277.15
2022-09-07T20:16:51.275Z,95276.65
2022-09-07T20:19:17.610Z,95277.62
2022-09-07T20:21:43.950Z,95271.47
2022-09-07T20:24:10.284Z,95271.47
2022-09-07T20:26:36.627Z,95271.98
2022-09-07T20:29:23.752Z,95274.56
2022-09-07T20:31:29.402Z,95273.95
2022-09-07T20:33:55.690Z,95279.73
2022-09-07T20:36:22.034Z,95284.20
2022-09-07T20:38:48.369Z,95280.78
2022-09-07T20:41:14.715Z,95278.70
2022-09-07T20:43:41.049Z,95283.37
2022-09-07T20:46:07.390Z,95289.05
2022-09-07T20:48:33.731Z,95294.22
2022-09-07T20:51:00.076Z,95292.10
2022-09-07T20:53:26.406Z,95293.72
2022-09-07T20:55:52.751Z,95293.04
2022-09-07T20:58:19.093Z,95296.31
2022-09-07T21:00:45.458Z,95301.98
2022-09-07T21:03:11.766Z,95306.33
2022-09-07T21:05:38.111Z,95306.33
2022-09-07T21:08:05.438Z,95305.97
2022-09-07T21:10:30.802Z,95318.91
2022-09-07T21:12:57.151Z,95313.73
2022-09-07T21:15:23.488Z,95310.79
2022-09-07T21:17:49.832Z,95316.79
2022-09-07T21:20:16.180Z,95317.25
2022-09-07T21:22:42.515Z,95323.25
2022-09-07T21:25:08.858Z,95317.25
2022-09-07T21:27:38.397Z,95314.67
2022-09-07T21:30:01.596Z,95309.96
2022-09-07T21:32:27.899Z,95307.38
2022-09-07T21:34:54.237Z,95309.17
2022-09-07T21:37:20.566Z,95306.58
2022-09-07T21:39:46.966Z,95312.22
2022-09-07T21:42:13.314Z,95309.96
2022-09-07T21:44:39.656Z,95312.08
2022-09-07T21:47:06.046Z,95319.84
2022-09-07T21:49:32.340Z,95315.64
2022-09-07T21:51:58.679Z,95311.76
2022-09-07T21:54:25.022Z,95313.37
2022-09-07T21:56:51.363Z,95314.67
2022-09-07T21:59:17.700Z,95307.88
2022-09-07T22:01:44.063Z,95308.81
2022-09-07T22:04:10.407Z,95304.32
2022-09-07T22:06:36.753Z,95314.34
2022-09-07T22:09:03.091Z,95309.96
2022-09-07T22:11:29.432Z,95305.76
2022-09-07T22:13:55.773Z,95311.41
2022-09-07T22:16:22.176Z,95306.23
2022-09-07T22:18:48.455Z,95305.76
2022-09-07T22:21:14.795Z,95300.23
2022-09-07T22:23:41.158Z,95301.52
2022-09-07T22:26:07.493Z,95301.05
2022-09-07T22:28:33.839Z,95300.70
2022-09-07T22:31:00.263Z,95301.99
2022-09-07T22:33:26.523Z,95298.11
2022-09-07T22:35:54.058Z,95290.82
2022-09-07T22:38:19.203Z,95290.03
2022-09-07T22:40:45.534Z,95284.35
2022-09-07T22:43:13.521Z,95283.56
2022-09-07T22:45:38.223Z,95280.01
2022-09-07T22:48:04.564Z,95284.85
2022-09-07T22:50:30.921Z,95280.98
2022-09-07T22:52:57.263Z,95278.86
2022-09-07T22:55:23.615Z,95280.15
2022-09-07T22:57:49.957Z,95273.69
2022-09-07T23:00:16.300Z,95271.56
2022-09-07T23:02:42.644Z,95274.63
2022-09-07T23:05:09.049Z,95279.68
2022-09-07T23:07:35.324Z,95282.73
2022-09-07T23:10:01.661Z,95283.06
2022-09-07T23:12:28.028Z,95284.50
2022-09-07T23:14:54.357Z,95284.50
2022-09-07T23:17:20.717Z,95283.20
2022-09-07T23:19:47.063Z,95289.20
2022-09-07T23:22:13.402Z,95287.55
2022-09-07T23:24:39.761Z,95282.02
2022-09-07T23:27:06.149Z,95285.44
2022-09-07T23:29:32.524Z,95285.91
2022-09-07T23:31:58.854Z,95281.55
2022-09-07T23:34:25.196Z,95282.49
2022-09-07T23:36:51.532Z,95286.73
2022-09-07T23:39:17.869Z,95282.84
2022-09-07T23:41:44.202Z,95279.91
2022-09-07T23:44:10.545Z,95276.38
2022-09-07T23:46:36.941Z,95283.78
2022-09-07T23:49:03.248Z,95281.70
2022-09-07T23:51:29.585Z,95280.88
2022-09-07T23:53:55.923Z,95281.20
2022-09-07T23:56:22.258Z,95272.65
2022-09-07T23:58:48.598Z,95267.95
